sensor_id;sensor_type;location;lat;lon;timestamp;temperature;humidity
75719;DHT22;64340;48.534;-3.036;2024-02-04T00:02:04;20.30;59.30
75719;DHT22;64340;48.534;-3.036;2024-02-04T00:04:32;20.30;59.30
75719;DHT22;64340;48.534;-3.036;2024-02-04T00:06:59;20.30;59.20
75719;DHT22;64340;48.534;-3.036;2024-02-04T00:09:25;20.30;59.10
75719;DHT22;64340;48.534;-3.036;2024-02-04T00:11:54;20.30;59.10
75719;DHT22;64340;48.534;-3.036;2024-02-04T00:14:20;20.30;59.10
75719;DHT22;64340;48.534;-3.036;2024-02-04T00:16:46;20.30;59.10
75719;DHT22;64340;48.534;-3.036;2024-02-04T00:19:14;20.30;59.10
75719;DHT22;64340;48.534;-3.036;2024-02-04T00:21:40;20.30;59.00
75719;DHT22;64340;48.534;-3.036;2024-02-04T00:24:06;20.20;59.00
75719;DHT22;64340;48.534;-3.036;2024-02-04T00:26:32;20.20;58.90
75719;DHT22;64340;48.534;-3.036;2024-02-04T00:28:57;20.10;59.00
75719;DHT22;64340;48.534;-3.036;2024-02-04T00:31:24;20.10;58.90
75719;DHT22;64340;48.534;-3.036;2024-02-04T00:33:51;20.10;58.90
75719;DHT22;64340;48.534;-3.036;2024-02-04T00:36:17;20.10;58.80
75719;DHT22;64340;48.534;-3.036;2024-02-04T00:38:44;20.10;58.80
75719;DHT22;64340;48.534;-3.036;2024-02-04T00:41:10;20.10;58.80
75719;DHT22;64340;48.534;-3.036;2024-02-04T00:43:36;20.10;58.70
75719;DHT22;64340;48.534;-3.036;2024-02-04T00:46:02;20.00;58.70
75719;DHT22;64340;48.534;-3.036;2024-02-04T00:48:29;20.00;58.70
75719;DHT22;64340;48.534;-3.036;2024-02-04T00:50:56;20.00;58.70
75719;DHT22;64340;48.534;-3.036;2024-02-04T00:53:22;20.00;58.60
75719;DHT22;64340;48.534;-3.036;2024-02-04T00:55:48;20.00;58.70
75719;DHT22;64340;48.534;-3.036;2024-02-04T00:58:14;20.00;58.70
75719;DHT22;64340;48.534;-3.036;2024-02-04T01:00:40;19.90;58.70
75719;DHT22;64340;48.534;-3.036;2024-02-04T01:03:07;19.90;58.70
75719;DHT22;64340;48.534;-3.036;2024-02-04T01:05:33;19.90;58.60
75719;DHT22;64340;48.534;-3.036;2024-02-04T01:07:59;19.90;58.60
75719;DHT22;64340;48.534;-3.036;2024-02-04T01:10:26;19.90;58.70
75719;DHT22;64340;48.534;-3.036;2024-02-04T01:12:52;19.90;58.50
75719;DHT22;64340;48.534;-3.036;2024-02-04T01:15:18;19.90;58.50
75719;DHT22;64340;48.534;-3.036;2024-02-04T01:17:43;19.80;58.60
75719;DHT22;64340;48.534;-3.036;2024-02-04T01:20:10;19.70;58.60
75719;DHT22;64340;48.534;-3.036;2024-02-04T01:22:35;19.70;58.60
75719;DHT22;64340;48.534;-3.036;2024-02-04T01:25:01;19.70;58.60
75719;DHT22;64340;48.534;-3.036;2024-02-04T01:27:27;19.70;58.60
75719;DHT22;64340;48.534;-3.036;2024-02-04T01:29:53;19.70;58.60
75719;DHT22;64340;48.534;-3.036;2024-02-04T01:32:19;19.70;58.60
75719;DHT22;64340;48.534;-3.036;2024-02-04T01:34:44;19.70;58.60
75719;DHT22;64340;48.534;-3.036;2024-02-04T01:37:10;19.70;58.50
75719;DHT22;64340;48.534;-3.036;2024-02-04T01:39:36;19.70;58.50
75719;DHT22;64340;48.534;-3.036;2024-02-04T01:42:02;19.60;58.50
75719;DHT22;64340;48.534;-3.036;2024-02-04T01:44:27;19.60;58.50
75719;DHT22;64340;48.534;-3.036;2024-02-04T01:46:53;19.60;58.40
75719;DHT22;64340;48.534;-3.036;2024-02-04T01:49:20;19.50;58.50
75719;DHT22;64340;48.534;-3.036;2024-02-04T01:51:46;19.50;58.40
75719;DHT22;64340;48.534;-3.036;2024-02-04T01:54:12;19.50;58.40
75719;DHT22;64340;48.534;-3.036;2024-02-04T01:56:38;19.50;58.40
75719;DHT22;64340;48.534;-3.036;2024-02-04T01:59:04;19.50;58.40
75719;DHT22;64340;48.534;-3.036;2024-02-04T02:01:30;19.50;58.30
75719;DHT22;64340;48.534;-3.036;2024-02-04T02:03:56;19.50;58.30
75719;DHT22;64340;48.534;-3.036;2024-02-04T02:06:22;19.50;58.30
75719;DHT22;64340;48.534;-3.036;2024-02-04T02:08:50;19.40;58.40
75719;DHT22;64340;48.534;-3.036;2024-02-04T02:11:21;19.40;58.40
75719;DHT22;64340;48.534;-3.036;2024-02-04T02:13:54;19.40;58.30
75719;DHT22;64340;48.534;-3.036;2024-02-04T02:16:23;19.40;58.30
75719;DHT22;64340;48.534;-3.036;2024-02-04T02:18:54;19.40;58.40
75719;DHT22;64340;48.534;-3.036;2024-02-04T02:22:00;19.40;58.30
75719;DHT22;64340;48.534;-3.036;2024-02-04T02:24:35;19.30;58.30
75719;DHT22;64340;48.534;-3.036;2024-02-04T02:27:01;19.30;58.20
75719;DHT22;64340;48.534;-3.036;2024-02-04T02:29:27;19.30;58.30
75719;DHT22;64340;48.534;-3.036;2024-02-04T02:31:53;19.20;58.40
75719;DHT22;64340;48.534;-3.036;2024-02-04T02:34:19;19.20;58.40
75719;DHT22;64340;48.534;-3.036;2024-02-04T02:36:50;19.20;58.30
75719;DHT22;64340;48.534;-3.036;2024-02-04T02:39:42;19.20;58.40
75719;DHT22;64340;48.534;-3.036;2024-02-04T02:42:11;19.20;58.40
75719;DHT22;64340;48.534;-3.036;2024-02-04T02:44:38;19.10;58.40
75719;DHT22;64340;48.534;-3.036;2024-02-04T02:47:05;19.20;58.40
75719;DHT22;64340;48.534;-3.036;2024-02-04T02:49:32;19.10;58.30
75719;DHT22;64340;48.534;-3.036;2024-02-04T02:51:58;19.10;58.30
75719;DHT22;64340;48.534;-3.036;2024-02-04T02:54:24;19.10;58.30
75719;DHT22;64340;48.534;-3.036;2024-02-04T02:56:50;19.10;58.30
75719;DHT22;64340;48.534;-3.036;2024-02-04T02:59:16;19.10;58.20
75719;DHT22;64340;48.534;-3.036;2024-02-04T03:01:41;19.10;58.20
75719;DHT22;64340;48.534;-3.036;2024-02-04T03:04:07;19.10;58.20
75719;DHT22;64340;48.534;-3.036;2024-02-04T03:06:33;19.00;58.20
75719;DHT22;64340;48.534;-3.036;2024-02-04T03:08:59;19.00;58.20
75719;DHT22;64340;48.534;-3.036;2024-02-04T03:11:25;19.00;58.20
75719;DHT22;64340;48.534;-3.036;2024-02-04T03:13:50;19.00;58.20
75719;DHT22;64340;48.534;-3.036;2024-02-04T03:16:16;19.00;58.20
75719;DHT22;64340;48.534;-3.036;2024-02-04T03:18:43;18.90;58.20
75719;DHT22;64340;48.534;-3.036;2024-02-04T03:21:16;18.90;58.20
75719;DHT22;64340;48.534;-3.036;2024-02-04T03:23:42;18.90;58.20
75719;DHT22;64340;48.534;-3.036;2024-02-04T03:26:11;18.90;58.20
75719;DHT22;64340;48.534;-3.036;2024-02-04T03:28:37;18.90;58.10
75719;DHT22;64340;48.534;-3.036;2024-02-04T03:31:03;18.80;58.20
75719;DHT22;64340;48.534;-3.036;2024-02-04T03:33:29;18.80;58.20
75719;DHT22;64340;48.534;-3.036;2024-02-04T03:35:55;18.80;58.20
75719;DHT22;64340;48.534;-3.036;2024-02-04T03:38:20;18.80;58.20
75719;DHT22;64340;48.534;-3.036;2024-02-04T03:40:47;18.80;58.20
75719;DHT22;64340;48.534;-3.036;2024-02-04T03:43:15;18.70;58.20
75719;DHT22;64340;48.534;-3.036;2024-02-04T03:45:41;18.70;58.20
75719;DHT22;64340;48.534;-3.036;2024-02-04T03:48:07;18.70;58.20
75719;DHT22;64340;48.534;-3.036;2024-02-04T03:50:32;18.70;58.20
75719;DHT22;64340;48.534;-3.036;2024-02-04T03:52:58;18.70;58.20
75719;DHT22;64340;48.534;-3.036;2024-02-04T03:55:24;18.60;58.20
75719;DHT22;64340;48.534;-3.036;2024-02-04T03:57:52;18.60;58.30
75719;DHT22;64340;48.534;-3.036;2024-02-04T04:00:18;18.60;58.30
75719;DHT22;64340;48.534;-3.036;2024-02-04T04:02:43;18.60;58.40
75719;DHT22;64340;48.534;-3.036;2024-02-04T04:05:12;18.60;58.30
75719;DHT22;64340;48.534;-3.036;2024-02-04T04:07:39;18.60;58.30
75719;DHT22;64340;48.534;-3.036;2024-02-04T04:10:06;18.50;58.30
75719;DHT22;64340;48.534;-3.036;2024-02-04T04:12:31;18.50;58.30
75719;DHT22;64340;48.534;-3.036;2024-02-04T04:14:57;18.60;58.30
75719;DHT22;64340;48.534;-3.036;2024-02-04T04:17:23;18.50;58.30
75719;DHT22;64340;48.534;-3.036;2024-02-04T04:19:49;18.50;58.30
75719;DHT22;64340;48.534;-3.036;2024-02-04T04:22:15;18.50;58.20
75719;DHT22;64340;48.534;-3.036;2024-02-04T04:24:40;18.50;58.30
75719;DHT22;64340;48.534;-3.036;2024-02-04T04:27:06;18.50;58.30
75719;DHT22;64340;48.534;-3.036;2024-02-04T04:29:32;18.50;58.20
75719;DHT22;64340;48.534;-3.036;2024-02-04T04:31:58;18.50;58.20
75719;DHT22;64340;48.534;-3.036;2024-02-04T04:34:23;18.50;58.20
75719;DHT22;64340;48.534;-3.036;2024-02-04T04:36:49;18.50;58.20
75719;DHT22;64340;48.534;-3.036;2024-02-04T04:39:15;18.40;58.20
75719;DHT22;64340;48.534;-3.036;2024-02-04T04:41:43;18.40;58.20
75719;DHT22;64340;48.534;-3.036;2024-02-04T04:44:09;18.40;58.20
75719;DHT22;64340;48.534;-3.036;2024-02-04T04:46:40;18.40;58.00
75719;DHT22;64340;48.534;-3.036;2024-02-04T04:49:06;18.40;58.10
75719;DHT22;64340;48.534;-3.036;2024-02-04T04:51:32;18.40;58.10
75719;DHT22;64340;48.534;-3.036;2024-02-04T04:53:58;18.30;58.10
75719;DHT22;64340;48.534;-3.036;2024-02-04T04:56:24;18.30;58.20
75719;DHT22;64340;48.534;-3.036;2024-02-04T04:58:50;18.30;58.20
75719;DHT22;64340;48.534;-3.036;2024-02-04T05:01:16;18.30;58.10
75719;DHT22;64340;48.534;-3.036;2024-02-04T05:03:42;18.30;58.10
75719;DHT22;64340;48.534;-3.036;2024-02-04T05:06:08;18.30;58.10
75719;DHT22;64340;48.534;-3.036;2024-02-04T05:08:34;18.20;58.20
75719;DHT22;64340;48.534;-3.036;2024-02-04T05:10:59;18.20;58.20
75719;DHT22;64340;48.534;-3.036;2024-02-04T05:13:25;18.20;58.10
75719;DHT22;64340;48.534;-3.036;2024-02-04T05:15:51;18.20;58.10
75719;DHT22;64340;48.534;-3.036;2024-02-04T05:18:17;18.20;58.10
75719;DHT22;64340;48.534;-3.036;2024-02-04T05:20:42;18.20;58.10
75719;DHT22;64340;48.534;-3.036;2024-02-04T05:23:09;18.20;58.00
75719;DHT22;64340;48.534;-3.036;2024-02-04T05:25:35;18.10;58.00
75719;DHT22;64340;48.534;-3.036;2024-02-04T05:28:01;18.10;58.10
75719;DHT22;64340;48.534;-3.036;2024-02-04T05:30:26;18.10;58.30
75719;DHT22;64340;48.534;-3.036;2024-02-04T05:32:52;18.10;58.20
75719;DHT22;64340;48.534;-3.036;2024-02-04T05:35:18;18.10;58.20
75719;DHT22;64340;48.534;-3.036;2024-02-04T05:37:44;18.10;58.20
75719;DHT22;64340;48.534;-3.036;2024-02-04T05:40:10;18.10;58.20
75719;DHT22;64340;48.534;-3.036;2024-02-04T05:42:36;18.10;58.20
75719;DHT22;64340;48.534;-3.036;2024-02-04T05:45:03;18.10;58.20
75719;DHT22;64340;48.534;-3.036;2024-02-04T05:47:30;18.10;58.10
75719;DHT22;64340;48.534;-3.036;2024-02-04T05:49:56;18.10;58.00
75719;DHT22;64340;48.534;-3.036;2024-02-04T05:52:22;18.10;58.00
75719;DHT22;64340;48.534;-3.036;2024-02-04T05:54:48;18.00;58.00
75719;DHT22;64340;48.534;-3.036;2024-02-04T05:57:13;18.00;58.00
75719;DHT22;64340;48.534;-3.036;2024-02-04T05:59:39;18.00;57.80
75719;DHT22;64340;48.534;-3.036;2024-02-04T06:02:05;18.00;57.80
75719;DHT22;64340;48.534;-3.036;2024-02-04T06:04:31;18.00;57.90
75719;DHT22;64340;48.534;-3.036;2024-02-04T06:06:59;18.00;57.80
75719;DHT22;64340;48.534;-3.036;2024-02-04T06:09:24;18.00;57.80
75719;DHT22;64340;48.534;-3.036;2024-02-04T06:11:50;18.00;57.80
75719;DHT22;64340;48.534;-3.036;2024-02-04T06:14:16;18.00;57.70
75719;DHT22;64340;48.534;-3.036;2024-02-04T06:16:42;18.00;57.90
75719;DHT22;64340;48.534;-3.036;2024-02-04T06:19:07;18.00;58.10
75719;DHT22;64340;48.534;-3.036;2024-02-04T06:21:34;18.00;58.20
75719;DHT22;64340;48.534;-3.036;2024-02-04T06:24:00;18.00;58.00
75719;DHT22;64340;48.534;-3.036;2024-02-04T06:26:26;18.00;58.10
75719;DHT22;64340;48.534;-3.036;2024-02-04T06:28:52;18.00;58.10
75719;DHT22;64340;48.534;-3.036;2024-02-04T06:31:18;18.00;58.10
75719;DHT22;64340;48.534;-3.036;2024-02-04T06:33:44;17.90;58.00
75719;DHT22;64340;48.534;-3.036;2024-02-04T06:36:10;17.90;58.40
75719;DHT22;64340;48.534;-3.036;2024-02-04T06:38:36;17.90;58.20
75719;DHT22;64340;48.534;-3.036;2024-02-04T06:41:02;18.00;58.10
75719;DHT22;64340;48.534;-3.036;2024-02-04T06:43:28;17.80;57.30
75719;DHT22;64340;48.534;-3.036;2024-02-04T06:45:54;17.30;57.30
75719;DHT22;64340;48.534;-3.036;2024-02-04T06:48:19;17.00;57.50
75719;DHT22;64340;48.534;-3.036;2024-02-04T06:50:45;16.90;57.90
75719;DHT22;64340;48.534;-3.036;2024-02-04T06:53:13;16.80;58.00
75719;DHT22;64340;48.534;-3.036;2024-02-04T06:55:39;16.70;58.30
75719;DHT22;64340;48.534;-3.036;2024-02-04T06:58:05;16.70;57.90
75719;DHT22;64340;48.534;-3.036;2024-02-04T07:00:31;16.80;58.50
75719;DHT22;64340;48.534;-3.036;2024-02-04T07:02:57;17.10;58.70
75719;DHT22;64340;48.534;-3.036;2024-02-04T07:05:22;17.40;58.90
75719;DHT22;64340;48.534;-3.036;2024-02-04T07:07:49;17.50;58.70
75719;DHT22;64340;48.534;-3.036;2024-02-04T07:10:16;17.60;58.50
75719;DHT22;64340;48.534;-3.036;2024-02-04T07:12:42;17.70;58.30
75719;DHT22;64340;48.534;-3.036;2024-02-04T07:15:08;17.80;58.30
75719;DHT22;64340;48.534;-3.036;2024-02-04T07:17:34;18.00;58.30
75719;DHT22;64340;48.534;-3.036;2024-02-04T07:20:01;18.10;58.80
75719;DHT22;64340;48.534;-3.036;2024-02-04T07:22:27;18.20;59.00
75719;DHT22;64340;48.534;-3.036;2024-02-04T07:24:53;18.30;59.30
75719;DHT22;64340;48.534;-3.036;2024-02-04T07:27:18;18.40;59.10
75719;DHT22;64340;48.534;-3.036;2024-02-04T07:29:44;18.50;60.00
75719;DHT22;64340;48.534;-3.036;2024-02-04T07:32:10;18.60;60.00
75719;DHT22;64340;48.534;-3.036;2024-02-04T07:34:36;18.70;59.50
75719;DHT22;64340;48.534;-3.036;2024-02-04T07:37:02;18.80;59.60
75719;DHT22;64340;48.534;-3.036;2024-02-04T07:39:28;18.90;59.70
75719;DHT22;64340;48.534;-3.036;2024-02-04T07:41:56;19.10;59.60
75719;DHT22;64340;48.534;-3.036;2024-02-04T07:44:26;19.20;59.50
75719;DHT22;64340;48.534;-3.036;2024-02-04T07:46:52;19.40;59.50
75719;DHT22;64340;48.534;-3.036;2024-02-04T07:49:17;19.50;59.20
75719;DHT22;64340;48.534;-3.036;2024-02-04T07:51:43;19.50;59.40
75719;DHT22;64340;48.534;-3.036;2024-02-04T07:54:09;19.70;59.10
75719;DHT22;64340;48.534;-3.036;2024-02-04T07:56:35;19.70;59.10
75719;DHT22;64340;48.534;-3.036;2024-02-04T07:59:01;19.90;59.00
75719;DHT22;64340;48.534;-3.036;2024-02-04T08:01:26;19.90;59.20
75719;DHT22;64340;48.534;-3.036;2024-02-04T08:03:52;20.00;58.90
75719;DHT22;64340;48.534;-3.036;2024-02-04T08:06:18;20.00;58.90
75719;DHT22;64340;48.534;-3.036;2024-02-04T08:08:44;20.10;58.80
75719;DHT22;64340;48.534;-3.036;2024-02-04T08:11:10;20.30;59.00
75719;DHT22;64340;48.534;-3.036;2024-02-04T08:13:36;20.30;58.90
75719;DHT22;64340;48.534;-3.036;2024-02-04T08:16:02;20.40;58.70
75719;DHT22;64340;48.534;-3.036;2024-02-04T08:18:27;20.30;58.90
75719;DHT22;64340;48.534;-3.036;2024-02-04T08:20:53;20.30;59.20
75719;DHT22;64340;48.534;-3.036;2024-02-04T08:23:19;20.50;58.90
75719;DHT22;64340;48.534;-3.036;2024-02-04T08:25:45;20.60;58.70
75719;DHT22;64340;48.534;-3.036;2024-02-04T08:28:12;20.60;58.70
75719;DHT22;64340;48.534;-3.036;2024-02-04T08:30:37;20.80;58.70
75719;DHT22;64340;48.534;-3.036;2024-02-04T08:33:03;20.70;58.70
75719;DHT22;64340;48.534;-3.036;2024-02-04T08:35:30;20.60;59.40
75719;DHT22;64340;48.534;-3.036;2024-02-04T08:37:56;20.50;59.90
75719;DHT22;64340;48.534;-3.036;2024-02-04T08:40:21;20.50;60.00
75719;DHT22;64340;48.534;-3.036;2024-02-04T08:42:47;20.30;59.90
75719;DHT22;64340;48.534;-3.036;2024-02-04T08:45:13;20.30;60.00
75719;DHT22;64340;48.534;-3.036;2024-02-04T08:47:39;20.30;59.70
75719;DHT22;64340;48.534;-3.036;2024-02-04T08:50:05;20.30;59.90
75719;DHT22;64340;48.534;-3.036;2024-02-04T08:52:31;20.30;59.90
75719;DHT22;64340;48.534;-3.036;2024-02-04T08:54:57;19.90;58.70
75719;DHT22;64340;48.534;-3.036;2024-02-04T08:57:25;19.40;57.80
75719;DHT22;64340;48.534;-3.036;2024-02-04T08:59:51;19.20;57.90
75719;DHT22;64340;48.534;-3.036;2024-02-04T09:02:16;19.00;58.20
75719;DHT22;64340;48.534;-3.036;2024-02-04T09:04:43;19.00;58.10
75719;DHT22;64340;48.534;-3.036;2024-02-04T09:07:09;18.80;57.10
75719;DHT22;64340;48.534;-3.036;2024-02-04T09:09:35;18.60;57.10
75719;DHT22;64340;48.534;-3.036;2024-02-04T09:12:01;18.60;57.10
75719;DHT22;64340;48.534;-3.036;2024-02-04T09:14:27;18.70;57.00
75719;DHT22;64340;48.534;-3.036;2024-02-04T09:16:53;19.00;57.20
75719;DHT22;64340;48.534;-3.036;2024-02-04T09:19:19;19.10;56.70
75719;DHT22;64340;48.534;-3.036;2024-02-04T09:21:44;19.00;56.80
75719;DHT22;64340;48.534;-3.036;2024-02-04T09:24:10;19.30;57.10
75719;DHT22;64340;48.534;-3.036;2024-02-04T09:26:36;19.50;56.90
75719;DHT22;64340;48.534;-3.036;2024-02-04T09:29:02;19.60;56.90
75719;DHT22;64340;48.534;-3.036;2024-02-04T09:31:28;19.70;56.80
75719;DHT22;64340;48.534;-3.036;2024-02-04T09:33:54;19.40;55.50
75719;DHT22;64340;48.534;-3.036;2024-02-04T09:36:19;19.10;56.20
75719;DHT22;64340;48.534;-3.036;2024-02-04T09:38:47;19.00;55.50
75719;DHT22;64340;48.534;-3.036;2024-02-04T09:41:13;18.70;55.80
75719;DHT22;64340;48.534;-3.036;2024-02-04T09:43:39;18.40;56.00
75719;DHT22;64340;48.534;-3.036;2024-02-04T09:46:05;18.20;56.40
75719;DHT22;64340;48.534;-3.036;2024-02-04T09:48:32;18.10;56.30
75719;DHT22;64340;48.534;-3.036;2024-02-04T09:50:59;18.00;56.60
75719;DHT22;64340;48.534;-3.036;2024-02-04T09:53:35;18.10;56.40
75719;DHT22;64340;48.534;-3.036;2024-02-04T09:56:03;18.00;56.20
75719;DHT22;64340;48.534;-3.036;2024-02-04T09:58:32;17.80;55.90
75719;DHT22;64340;48.534;-3.036;2024-02-04T10:01:01;17.20;57.10
75719;DHT22;64340;48.534;-3.036;2024-02-04T10:03:28;16.90;57.90
75719;DHT22;64340;48.534;-3.036;2024-02-04T10:05:54;16.80;58.10
75719;DHT22;64340;48.534;-3.036;2024-02-04T10:08:20;16.60;58.10
75719;DHT22;64340;48.534;-3.036;2024-02-04T10:10:47;16.80;58.50
75719;DHT22;64340;48.534;-3.036;2024-02-04T10:13:13;17.50;57.30
75719;DHT22;64340;48.534;-3.036;2024-02-04T10:15:39;18.00;56.70
75719;DHT22;64340;48.534;-3.036;2024-02-04T10:18:05;18.30;56.20
75719;DHT22;64340;48.534;-3.036;2024-02-04T10:20:34;18.60;56.00
75719;DHT22;64340;48.534;-3.036;2024-02-04T10:23:00;18.80;55.70
75719;DHT22;64340;48.534;-3.036;2024-02-04T10:25:26;19.00;55.70
75719;DHT22;64340;48.534;-3.036;2024-02-04T10:27:53;19.20;55.40
75719;DHT22;64340;48.534;-3.036;2024-02-04T10:30:22;19.40;57.80
75719;DHT22;64340;48.534;-3.036;2024-02-04T10:32:50;19.60;57.00
75719;DHT22;64340;48.534;-3.036;2024-02-04T10:35:17;19.70;57.30
75719;DHT22;64340;48.534;-3.036;2024-02-04T10:37:49;19.70;57.40
75719;DHT22;64340;48.534;-3.036;2024-02-04T10:40:16;19.70;57.70
75719;DHT22;64340;48.534;-3.036;2024-02-04T10:42:43;19.70;58.00
75719;DHT22;64340;48.534;-3.036;2024-02-04T10:45:10;19.70;58.00
75719;DHT22;64340;48.534;-3.036;2024-02-04T10:47:39;19.80;58.00
75719;DHT22;64340;48.534;-3.036;2024-02-04T10:50:07;19.80;58.20
75719;DHT22;64340;48.534;-3.036;2024-02-04T10:52:38;19.80;58.20
75719;DHT22;64340;48.534;-3.036;2024-02-04T10:55:09;19.90;58.20
75719;DHT22;64340;48.534;-3.036;2024-02-04T10:57:37;19.90;57.30
75719;DHT22;64340;48.534;-3.036;2024-02-04T11:00:04;19.90;58.00
75719;DHT22;64340;48.534;-3.036;2024-02-04T11:02:35;19.90;58.20
75719;DHT22;64340;48.534;-3.036;2024-02-04T11:05:07;19.90;58.30
75719;DHT22;64340;48.534;-3.036;2024-02-04T11:07:36;20.00;58.10
75719;DHT22;64340;48.534;-3.036;2024-02-04T11:10:03;20.00;58.00
75719;DHT22;64340;48.534;-3.036;2024-02-04T11:12:30;20.00;57.90
75719;DHT22;64340;48.534;-3.036;2024-02-04T11:15:03;20.00;57.40
75719;DHT22;64340;48.534;-3.036;2024-02-04T11:25:42;20.00;59.70
75719;DHT22;64340;48.534;-3.036;2024-02-04T11:28:12;20.00;58.20
75719;DHT22;64340;48.534;-3.036;2024-02-04T11:30:39;20.00;59.90
75719;DHT22;64340;48.534;-3.036;2024-02-04T11:33:06;19.80;59.10
75719;DHT22;64340;48.534;-3.036;2024-02-04T11:35:36;19.70;60.70
75719;DHT22;64340;48.534;-3.036;2024-02-04T11:38:06;19.70;61.20
75719;DHT22;64340;48.534;-3.036;2024-02-04T11:40:37;19.70;61.20
75719;DHT22;64340;48.534;-3.036;2024-02-04T11:43:06;19.40;56.10
75719;DHT22;64340;48.534;-3.036;2024-02-04T11:45:32;18.60;56.00
75719;DHT22;64340;48.534;-3.036;2024-02-04T11:48:02;19.00;58.00
75719;DHT22;64340;48.534;-3.036;2024-02-04T11:50:30;19.50;58.30
75719;DHT22;64340;48.534;-3.036;2024-02-04T11:53:23;19.50;58.00
75719;DHT22;64340;48.534;-3.036;2024-02-04T11:55:54;19.70;58.10
75719;DHT22;64340;48.534;-3.036;2024-02-04T11:58:20;19.80;58.60
75719;DHT22;64340;48.534;-3.036;2024-02-04T12:00:46;19.80;58.70
75719;DHT22;64340;48.534;-3.036;2024-02-04T12:03:15;19.70;59.20
75719;DHT22;64340;48.534;-3.036;2024-02-04T12:05:41;19.70;59.40
75719;DHT22;64340;48.534;-3.036;2024-02-04T12:08:10;19.70;59.50
75719;DHT22;64340;48.534;-3.036;2024-02-04T12:10:38;19.90;59.30
75719;DHT22;64340;48.534;-3.036;2024-02-04T12:13:06;20.00;59.20
75719;DHT22;64340;48.534;-3.036;2024-02-04T12:15:34;20.00;59.30
75719;DHT22;64340;48.534;-3.036;2024-02-04T12:18:11;20.00;59.20
75719;DHT22;64340;48.534;-3.036;2024-02-04T12:20:40;20.10;59.40
75719;DHT22;64340;48.534;-3.036;2024-02-04T12:23:07;20.10;59.70
75719;DHT22;64340;48.534;-3.036;2024-02-04T12:25:34;20.10;59.30
75719;DHT22;64340;48.534;-3.036;2024-02-04T12:28:01;20.50;59.40
75719;DHT22;64340;48.534;-3.036;2024-02-04T12:30:32;20.50;59.00
75719;DHT22;64340;48.534;-3.036;2024-02-04T12:33:01;20.60;59.50
75719;DHT22;64340;48.534;-3.036;2024-02-04T12:35:28;20.50;59.40
75719;DHT22;64340;48.534;-3.036;2024-02-04T12:37:56;20.60;59.70
75719;DHT22;64340;48.534;-3.036;2024-02-04T12:40:23;20.70;59.70
75719;DHT22;64340;48.534;-3.036;2024-02-04T12:42:57;20.70;60.00
75719;DHT22;64340;48.534;-3.036;2024-02-04T12:45:25;20.60;60.80
75719;DHT22;64340;48.534;-3.036;2024-02-04T12:47:52;20.50;60.20
75719;DHT22;64340;48.534;-3.036;2024-02-04T12:50:19;20.40;59.40
75719;DHT22;64340;48.534;-3.036;2024-02-04T12:53:02;20.40;59.60
75719;DHT22;64340;48.534;-3.036;2024-02-04T12:55:29;20.50;59.80
75719;DHT22;64340;48.534;-3.036;2024-02-04T12:58:11;20.50;60.30
75719;DHT22;64340;48.534;-3.036;2024-02-04T13:00:42;20.60;60.20
75719;DHT22;64340;48.534;-3.036;2024-02-04T13:03:09;20.60;60.80
75719;DHT22;64340;48.534;-3.036;2024-02-04T13:05:36;20.80;60.90
75719;DHT22;64340;48.534;-3.036;2024-02-04T13:08:03;21.00;60.30
75719;DHT22;64340;48.534;-3.036;2024-02-04T13:10:32;21.10;59.20
75719;DHT22;64340;48.534;-3.036;2024-02-04T13:13:03;20.80;59.00
75719;DHT22;64340;48.534;-3.036;2024-02-04T13:15:42;20.50;58.70
75719;DHT22;64340;48.534;-3.036;2024-02-04T13:18:09;20.30;58.70
75719;DHT22;64340;48.534;-3.036;2024-02-04T13:20:37;20.30;59.40
75719;DHT22;64340;48.534;-3.036;2024-02-04T13:23:04;20.30;58.70
75719;DHT22;64340;48.534;-3.036;2024-02-04T13:25:33;20.30;58.50
75719;DHT22;64340;48.534;-3.036;2024-02-04T13:27:59;20.30;58.70
75719;DHT22;64340;48.534;-3.036;2024-02-04T13:30:25;20.20;58.60
75719;DHT22;64340;48.534;-3.036;2024-02-04T13:32:51;20.10;58.70
75719;DHT22;64340;48.534;-3.036;2024-02-04T13:35:17;20.00;58.70
75719;DHT22;64340;48.534;-3.036;2024-02-04T13:37:47;20.00;57.80
75719;DHT22;64340;48.534;-3.036;2024-02-04T13:40:17;20.00;57.50
75719;DHT22;64340;48.534;-3.036;2024-02-04T13:42:43;20.10;57.70
75719;DHT22;64340;48.534;-3.036;2024-02-04T13:45:09;20.10;57.50
75719;DHT22;64340;48.534;-3.036;2024-02-04T13:47:35;20.10;58.00
75719;DHT22;64340;48.534;-3.036;2024-02-04T13:50:02;20.30;58.50
75719;DHT22;64340;48.534;-3.036;2024-02-04T13:52:28;20.50;58.90
75719;DHT22;64340;48.534;-3.036;2024-02-04T13:54:54;20.60;59.30
75719;DHT22;64340;48.534;-3.036;2024-02-04T13:57:20;20.80;59.10
75719;DHT22;64340;48.534;-3.036;2024-02-04T13:59:46;20.80;59.70
75719;DHT22;64340;48.534;-3.036;2024-02-04T14:02:12;21.00;59.80
75719;DHT22;64340;48.534;-3.036;2024-02-04T14:04:37;21.00;59.80
75719;DHT22;64340;48.534;-3.036;2024-02-04T14:07:03;21.10;60.10
75719;DHT22;64340;48.534;-3.036;2024-02-04T14:09:29;21.10;60.50
75719;DHT22;64340;48.534;-3.036;2024-02-04T14:11:55;21.10;60.60
75719;DHT22;64340;48.534;-3.036;2024-02-04T14:14:23;21.10;60.80
75719;DHT22;64340;48.534;-3.036;2024-02-04T14:16:49;21.10;61.00
75719;DHT22;64340;48.534;-3.036;2024-02-04T14:19:16;21.10;60.90
75719;DHT22;64340;48.534;-3.036;2024-02-04T14:21:42;21.10;60.70
75719;DHT22;64340;48.534;-3.036;2024-02-04T14:24:08;21.30;60.30
75719;DHT22;64340;48.534;-3.036;2024-02-04T14:26:34;21.30;60.00
75719;DHT22;64340;48.534;-3.036;2024-02-04T14:29:00;21.10;60.50
75719;DHT22;64340;48.534;-3.036;2024-02-04T14:31:26;21.10;60.70
75719;DHT22;64340;48.534;-3.036;2024-02-04T14:33:52;21.10;60.60
75719;DHT22;64340;48.534;-3.036;2024-02-04T14:36:18;21.00;60.70
75719;DHT22;64340;48.534;-3.036;2024-02-04T14:38:45;21.00;60.70
75719;DHT22;64340;48.534;-3.036;2024-02-04T14:41:11;21.10;60.50
75719;DHT22;64340;48.534;-3.036;2024-02-04T14:43:37;21.00;60.60
75719;DHT22;64340;48.534;-3.036;2024-02-04T14:46:03;21.00;60.60
75719;DHT22;64340;48.534;-3.036;2024-02-04T14:48:29;21.00;60.50
75719;DHT22;64340;48.534;-3.036;2024-02-04T14:50:55;21.10;60.20
75719;DHT22;64340;48.534;-3.036;2024-02-04T14:53:22;21.10;60.50
75719;DHT22;64340;48.534;-3.036;2024-02-04T14:55:48;21.00;60.40
75719;DHT22;64340;48.534;-3.036;2024-02-04T14:58:14;21.00;60.30
75719;DHT22;64340;48.534;-3.036;2024-02-04T15:00:40;21.00;60.50
75719;DHT22;64340;48.534;-3.036;2024-02-04T15:03:06;21.00;60.80
75719;DHT22;64340;48.534;-3.036;2024-02-04T15:05:31;21.00;60.70
75719;DHT22;64340;48.534;-3.036;2024-02-04T15:07:57;21.00;59.80
75719;DHT22;64340;48.534;-3.036;2024-02-04T15:10:23;21.10;60.30
75719;DHT22;64340;48.534;-3.036;2024-02-04T15:12:49;21.10;60.30
75719;DHT22;64340;48.534;-3.036;2024-02-04T15:15:18;21.10;60.40
75719;DHT22;64340;48.534;-3.036;2024-02-04T15:17:44;21.10;60.40
75719;DHT22;64340;48.534;-3.036;2024-02-04T15:20:10;21.10;60.40
75719;DHT22;64340;48.534;-3.036;2024-02-04T15:22:39;21.10;60.30